Airfield :
LOGIN :

Register | Disclaimer

   EN    FR    IT 

 










Legend :    VFR   Marginal VFR   IFR   Intensive IFR   Very Intensive IFR
Visi :
Ceiling :
>= 8 km
>= 3000ft
5 to 8 km
1000 to 3000 ft
1500m to 5 km
500 to 1000 ft
800 to 1500m
200 to 500 ft
< 800m
< 200 ft
Symbols :   Thunderstorms  Fog  Heavy snow  Heavy precipitations  Wind > 20 kt
SIGMETs :     Misc.  Thunderstorms  Icing  Turbulence  Mountain Waves  Volcanic Ashes







- Airport Elevation : 13 ft
- IATA code : LYX
- Download approach charts


EGMD - Lydd

CURRENT METAR :
  • 270350Z AUTO 05017KT 9999 OVC010/// 14/13 Q1028

EXPIRED METARs :
  • 270320Z AUTO 05017KT 9999 OVC010/// 14/13 Q1028
  • 270250Z AUTO 05017KT 9999 OVC010/// 14/13 Q1028
  • 270220Z AUTO 05018KT 9999 OVC010/// 14/13 Q1028
  • 270150Z AUTO 05016KT 9999 OVC010/// 14/13 Q1028
  • 270120Z AUTO 05019KT 9999 OVC009/// 14/13 Q1028
  • 270050Z AUTO 05017KT 9999 OVC009/// 14/13 Q1028

TAF TAF EGMD
Valid from the 27 at 03:00 until the 27 at 12:00 UTC


270159Z 2703/2712 05018KT 9999 BKN010
TEMPO 2703/2712 06020G30KT
PROB40
TEMPO 2703/2707 BKN009
BECMG 2707/2710 SCT016
ATIS : +44 1797 322 422
No reported NOTAMs for that airfield.
4 SIGMETs reported for the London FIR (EGTT) :
 
Embedded thunderstorms
EGTT SIGMET 05 VALID 270400/270700 EGRR
EGTT LONDON FIR EMBD TS FCST WI N4850 W00800 - N5008 W00800 - N4947 W00659 - N4909 W00628 - N4908 W00629 - N4850 W00800 TOP FL380 MOV NW 20KT NC=
Severe turbulence
EGTT SIGMET 04 VALID 270400/270800 EGRR
EGTT LONDON FIR SEV TURB FCST WI N5003 W00353 - N4944 W00627 - N5013 W00629 - N5057 W00416 - N5003 W00353 SFC/FL060 STNR WKN=
Embedded thunderstorms
EGTT SIGMET 03 VALID 270200/270400 EGRR
EGTT LONDON FIR EMBD TS FCST WI N4850 W00800 - N4955 W00800 - N4900 W00706 - N4850 W00800 TOP FL380 STNR NC=
Severe turbulence
EGTT SIGMET 01 VALID 270010/270400 EGRR
EGTT LONDON FIR SEV TURB FCST WI N5033 W00347 - N4950 W00345 - N4933 W00800 - N5028 W00800 - N5033 W00347 SFC/FL060 STNR WKN=



MET'MAP, your aeronautical weather chart ! - Copyright ORBIFLY December 2007 - Disclaimer

ORBIFLY MET'MAP TEAM :

Programming & Development : Alexandra Zaïnal
Concept & Development : Baudouin d'Aumeries
Co-Development & Prog : Marc-Olivier Méhu
Technical & hardware support : Manuel Goepfert

Contact : metmap@orbifly.com




SOURCES & CREDITS :

   NOAA